Hyattsville, Maryland
Current Conditions -  °F | °C
As of 2:00 PM on Tuesday 27 Jan 2015 (Local Time) from KCGS Reporting Station
Broken Clouds Broken Clouds  
Wind Chill: 27°   Ceiling: 2900
Heat Index: 36°   Visibility: 10mi
Dew Point: 23°   Wind: 14mph
Humidity: 60%   Direction: 330°NNW
Pressure: 29.79"   Gusts: 18mph
Location:  38.95°N, 76.94°W
Report Text: KCGS 271900Z AUTO 33012G16KT 300V360 10SM BKN029 BKN046 02/M05 A2979 RMK AO1
Loading
Personal Weather Stations






























Interactive Weather Map New forecast layout! Learn more

10-Day Weather Forecast

Advertisements
Track Severe Weather on mobile